createdAt,value
2019-05-02T00:02:24.100Z,17.42
2019-05-02T00:04:51.049Z,17.65
2019-05-02T00:07:20.106Z,22.02
2019-05-02T00:09:48.526Z,14.15
2019-05-02T00:12:15.491Z,19.07
2019-05-02T00:14:41.900Z,18.07
2019-05-02T00:17:08.077Z,17.80
2019-05-02T00:19:34.183Z,16.30
2019-05-02T00:22:00.458Z,18.20
2019-05-02T00:24:26.639Z,18.73
2019-05-02T00:26:56.114Z,19.55
2019-05-02T00:29:23.814Z,17.90
2019-05-02T00:31:48.954Z,16.73
2019-05-02T00:34:15.050Z,24.18
2019-05-02T00:36:41.143Z,20.45
2019-05-02T00:39:09.616Z,18.87
2019-05-02T00:41:38.310Z,22.17
2019-05-02T00:44:06.068Z,28.57
2019-05-02T00:46:35.059Z,32.42
2019-05-02T00:49:01.917Z,23.90
2019-05-02T00:51:28.168Z,25.30
2019-05-02T00:53:54.364Z,26.17
2019-05-02T00:56:20.466Z,24.98
2019-05-02T00:58:46.544Z,31.33
2019-05-02T01:01:29.374Z,23.67
2019-05-02T01:03:59.742Z,20.10
2019-05-02T01:06:25.915Z,15.13
2019-05-02T01:08:52.020Z,12.65
2019-05-02T01:11:18.238Z,14.87
2019-05-02T01:13:44.347Z,18.30
2019-05-02T01:16:10.535Z,19.50
2019-05-02T01:18:37.124Z,14.80
2019-05-02T01:21:04.714Z,17.12
2019-05-02T01:23:30.924Z,17.67
2019-05-02T01:25:57.007Z,16.35
2019-05-02T01:28:27.651Z,11.95
2019-05-02T01:31:13.109Z,15.38
2019-05-02T01:33:41.932Z,15.00
2019-05-02T01:39:02.908Z,16.62
2019-05-02T01:41:29.168Z,20.02
2019-05-02T01:43:59.956Z,22.77
2019-05-02T01:46:24.173Z,21.05
2019-05-02T01:48:50.382Z,13.88
2019-05-02T01:51:16.456Z,15.50
2019-05-02T01:53:42.584Z,17.42
2019-05-02T01:56:08.787Z,17.32
2019-05-02T01:58:34.867Z,17.73
2019-05-02T02:01:02.004Z,20.97
2019-05-02T02:03:28.238Z,17.57
2019-05-02T02:05:54.399Z,20.08
2019-05-02T02:08:20.666Z,17.92
2019-05-02T02:10:50.844Z,16.15
2019-05-02T02:13:14.951Z,23.50
2019-05-02T02:15:41.041Z,22.77
2019-05-02T02:18:07.246Z,31.62
2019-05-02T02:20:45.165Z,27.60
2019-05-02T02:23:29.049Z,30.02
2019-05-02T02:28:23.162Z,19.55
2019-05-02T02:30:49.402Z,26.23
2019-05-02T02:33:15.586Z,19.15
2019-05-02T02:35:49.650Z,19.57
2019-05-02T02:38:09.758Z,30.15
2019-05-02T02:40:35.966Z,36.03
2019-05-02T02:43:12.805Z,21.23
2019-05-02T02:45:44.135Z,21.93
2019-05-02T02:48:10.595Z,30.85
2019-05-02T02:50:42.849Z,17.80
2019-05-02T02:53:04.684Z,22.52
2019-05-02T02:55:30.973Z,27.82
2019-05-02T02:57:58.330Z,33.80
2019-05-02T03:00:25.127Z,33.18
2019-05-02T03:02:51.321Z,22.73
2019-05-02T03:05:18.506Z,27.90
2019-05-02T03:07:45.689Z,18.55
2019-05-02T03:10:11.909Z,30.65
2019-05-02T03:12:43.231Z,31.93
2019-05-02T03:15:21.090Z,37.98
2019-05-02T03:17:47.462Z,23.30
2019-05-02T03:20:13.545Z,27.27
2019-05-02T03:22:41.952Z,22.87
2019-05-02T03:25:08.440Z,26.48
2019-05-02T03:27:37.529Z,30.50
2019-05-02T03:30:03.765Z,20.57
2019-05-02T03:32:34.306Z,21.27
2019-05-02T03:34:57.974Z,17.12
2019-05-02T03:37:24.244Z,23.22
2019-05-02T03:39:57.241Z,26.80
2019-05-02T03:42:19.075Z,26.07
2019-05-02T03:44:55.058Z,29.80
2019-05-02T03:47:13.539Z,27.58
2019-05-02T03:49:41.034Z,19.40
2019-05-02T03:52:07.821Z,31.60
2019-05-02T03:54:34.603Z,27.25
2019-05-02T03:57:00.896Z,31.77
2019-05-02T03:59:37.376Z,36.60
2019-05-02T04:01:57.080Z,27.80
2019-05-02T04:04:23.368Z,30.08
2019-05-02T04:06:54.843Z,26.37
2019-05-02T04:09:32.175Z,24.02
2019-05-02T04:12:00.139Z,26.57
2019-05-02T04:14:37.575Z,32.20
2019-05-02T04:16:55.137Z,32.30
2019-05-02T04:19:22.379Z,32.85
2019-05-02T04:21:52.633Z,30.82
2019-05-02T04:24:17.189Z,21.33
2019-05-02T04:26:53.644Z,29.52
2019-05-02T04:29:12.028Z,32.55
2019-05-02T04:31:38.475Z,25.62
2019-05-02T04:34:14.086Z,25.80
2019-05-02T04:36:32.804Z,27.20
2019-05-02T04:38:59.648Z,23.52
2019-05-02T04:41:31.721Z,29.05
2019-05-02T04:43:57.587Z,30.45
2019-05-02T04:46:26.991Z,23.60
2019-05-02T04:48:52.968Z,33.58
2019-05-02T04:51:20.482Z,24.55
2019-05-02T04:53:49.544Z,35.08
2019-05-02T04:56:14.219Z,34.05
2019-05-02T04:58:40.793Z,50.50
2019-05-02T05:01:09.924Z,28.45
2019-05-02T05:03:37.573Z,34.98
2019-05-02T05:06:08.004Z,33.88
2019-05-02T05:08:32.626Z,33.90
2019-05-02T05:10:58.716Z,25.55
2019-05-02T05:13:26.512Z,34.92
2019-05-02T05:15:52.947Z,42.95
2019-05-02T05:18:19.092Z,28.15
2019-05-02T05:20:45.988Z,33.48
2019-05-02T05:23:18.248Z,45.85
2019-05-02T05:25:45.028Z,35.78
2019-05-02T05:28:11.137Z,41.40
2019-05-02T05:30:44.917Z,34.63
2019-05-02T05:33:07.624Z,48.25
2019-05-02T05:35:33.340Z,44.13
2019-05-02T05:37:59.525Z,56.40
2019-05-02T05:40:30.411Z,50.55
2019-05-02T05:42:53.623Z,44.73
2019-05-02T05:45:19.823Z,63.68
2019-05-02T05:47:47.796Z,58.02
2019-05-02T05:50:14.488Z,63.35
2019-05-02T05:52:42.445Z,55.12
2019-05-02T05:55:12.760Z,55.65
2019-05-02T05:57:39.885Z,57.98
2019-05-02T06:00:11.859Z,46.48
2019-05-02T06:02:50.879Z,41.88
2019-05-02T06:05:05.021Z,52.33
2019-05-02T06:07:33.637Z,64.58
2019-05-02T06:10:02.201Z,61.15
2019-05-02T06:12:47.182Z,66.17
2019-05-02T06:15:13.381Z,52.30
2019-05-02T06:17:39.477Z,61.45
2019-05-02T06:20:06.186Z,56.45
2019-05-02T06:22:32.261Z,66.17
2019-05-02T06:25:08.454Z,74.22
2019-05-02T06:27:31.915Z,70.60
2019-05-02T06:29:58.027Z,68.33
2019-05-02T06:32:24.214Z,59.10
2019-05-02T06:34:50.300Z,66.15
2019-05-02T06:37:16.436Z,77.80
2019-05-02T06:39:42.727Z,61.28
2019-05-02T06:42:08.841Z,67.60
2019-05-02T06:44:34.931Z,61.45
2019-05-02T06:47:04.368Z,62.20
2019-05-02T06:49:29.015Z,70.70
2019-05-02T06:51:56.199Z,65.17
2019-05-02T06:54:24.118Z,61.13
2019-05-02T06:56:50.668Z,49.48
2019-05-02T06:59:18.453Z,47.48
2019-05-02T07:01:45.847Z,66.10
2019-05-02T07:04:11.973Z,64.95
2019-05-02T07:06:50.213Z,66.28
2019-05-02T07:09:06.355Z,66.80
2019-05-02T07:11:33.211Z,56.37
2019-05-02T07:14:12.652Z,53.30
2019-05-02T07:16:38.747Z,54.90
2019-05-02T07:19:09.005Z,48.42
2019-05-02T07:21:35.181Z,59.73
2019-05-02T07:24:01.274Z,49.63
2019-05-02T07:26:27.385Z,52.17
2019-05-02T07:28:53.674Z,44.48
2019-05-02T07:31:19.784Z,51.05
2019-05-02T07:33:45.955Z,53.80
2019-05-02T07:36:12.058Z,41.63
2019-05-02T07:38:38.317Z,55.20
2019-05-02T07:41:04.984Z,50.67
2019-05-02T07:43:31.194Z,44.53
2019-05-02T07:45:57.393Z,69.82
2019-05-02T07:48:23.626Z,57.75
2019-05-02T07:50:50.195Z,63.45
2019-05-02T07:53:16.490Z,45.35
2019-05-02T07:55:42.787Z,54.50
2019-05-02T07:58:09.402Z,42.00
2019-05-02T08:00:37.217Z,46.35
2019-05-02T08:03:05.122Z,52.70
2019-05-02T08:05:31.492Z,52.98
2019-05-02T08:07:57.695Z,61.98
2019-05-02T08:10:24.139Z,61.45
2019-05-02T08:12:50.318Z,55.73
2019-05-02T08:15:16.548Z,54.20
2019-05-02T08:17:42.635Z,55.03
2019-05-02T08:20:08.843Z,58.63
2019-05-02T08:22:35.158Z,49.83
2019-05-02T08:25:03.911Z,54.73
2019-05-02T08:27:34.729Z,65.00
2019-05-02T08:30:03.894Z,39.23
2019-05-02T08:32:28.027Z,57.58
2019-05-02T08:34:54.117Z,47.35
2019-05-02T08:37:20.246Z,55.52
2019-05-02T08:39:46.345Z,53.63
2019-05-02T08:42:12.457Z,49.55
2019-05-02T08:44:50.324Z,47.10
2019-05-02T08:47:18.388Z,56.45
2019-05-02T08:49:34.642Z,55.83
2019-05-02T08:52:00.770Z,49.38
2019-05-02T08:54:36.328Z,51.40
2019-05-02T08:57:02.884Z,60.00
2019-05-02T08:59:29.005Z,60.50
2019-05-02T09:01:55.327Z,62.58
2019-05-02T09:04:24.205Z,53.85
2019-05-02T09:06:53.144Z,43.13
2019-05-02T09:09:17.510Z,50.88
2019-05-02T09:11:48.777Z,55.12
2019-05-02T09:14:12.573Z,54.93
2019-05-02T09:16:38.879Z,54.95
2019-05-02T09:19:05.084Z,52.53
2019-05-02T09:21:34.780Z,43.42
2019-05-02T09:23:59.253Z,56.73
2019-05-02T09:26:35.206Z,61.60
2019-05-02T09:28:56.305Z,50.45
2019-05-02T09:31:22.667Z,54.70
2019-05-02T09:33:49.184Z,67.27
2019-05-02T09:36:15.380Z,68.92
2019-05-02T09:38:42.488Z,44.95
2019-05-02T09:41:18.441Z,54.38
2019-05-02T09:43:38.954Z,59.18
2019-05-02T09:46:07.320Z,67.87
2019-05-02T09:48:32.852Z,70.90
2019-05-02T09:51:04.689Z,63.83
2019-05-02T09:53:27.022Z,65.83
2019-05-02T09:55:57.265Z,69.22
2019-05-02T09:58:23.895Z,73.78
2019-05-02T10:00:54.229Z,64.62
2019-05-02T10:03:22.441Z,65.78
2019-05-02T10:05:48.575Z,82.33
2019-05-02T10:08:14.838Z,76.42
2019-05-02T10:10:44.165Z,73.75
2019-05-02T10:16:02.051Z,72.32
2019-05-02T10:18:30.121Z,81.82
2019-05-02T10:20:56.383Z,89.83
2019-05-02T10:23:23.450Z,77.53
2019-05-02T10:25:51.967Z,81.08
2019-05-02T10:28:19.993Z,71.20
2019-05-02T10:30:47.476Z,84.60
2019-05-02T10:33:14.504Z,62.08
2019-05-02T10:35:43.382Z,81.63
2019-05-02T10:38:17.615Z,85.35
2019-05-02T10:40:39.671Z,78.10
2019-05-02T10:43:06.990Z,82.37
2019-05-02T10:45:33.681Z,75.83
2019-05-02T10:48:02.132Z,82.78
2019-05-02T10:50:48.283Z,81.95
2019-05-02T10:53:15.773Z,69.35
2019-05-02T10:55:43.099Z,71.92
2019-05-02T10:58:09.189Z,92.05
2019-05-02T11:00:37.227Z,85.65
2019-05-02T11:03:22.493Z,102.38
2019-05-02T11:05:57.856Z,91.20
2019-05-02T11:08:22.490Z,90.25
2019-05-02T11:10:49.029Z,82.12
2019-05-02T11:13:21.773Z,85.05
2019-05-02T11:16:07.002Z,83.85
2019-05-02T11:18:52.288Z,86.42
2019-05-02T11:21:18.889Z,78.97
2019-05-02T11:23:49.915Z,71.72
2019-05-02T11:26:21.565Z,68.72
2019-05-02T11:28:44.298Z,78.42
2019-05-02T11:31:12.381Z,71.47
2019-05-02T11:33:38.791Z,77.05
2019-05-02T11:36:05.161Z,75.00
2019-05-02T11:38:31.719Z,70.78
2019-05-02T11:40:58.151Z,74.30
2019-05-02T11:43:24.329Z,71.25
2019-05-02T11:45:54.161Z,67.62
2019-05-02T11:48:19.879Z,59.93
2019-05-02T11:50:46.112Z,65.32
2019-05-02T11:53:23.250Z,54.03
2019-05-02T11:55:41.958Z,56.15
2019-05-02T11:58:09.977Z,56.63
2019-05-02T12:00:39.691Z,56.28
2019-05-02T12:03:28.271Z,43.30
2019-05-02T12:05:52.638Z,53.63
2019-05-02T12:08:18.869Z,44.55
2019-05-02T12:10:45.183Z,44.30
2019-05-02T12:13:15.809Z,40.03
2019-05-02T12:15:43.916Z,37.90
2019-05-02T12:18:09.310Z,30.70
2019-05-02T12:20:36.837Z,40.90
2019-05-02T12:23:05.146Z,44.85
2019-05-02T12:25:32.855Z,45.45
2019-05-02T12:27:59.225Z,44.05
2019-05-02T12:30:28.977Z,43.28
2019-05-02T12:32:53.315Z,35.43
2019-05-02T12:35:19.718Z,38.88
2019-05-02T12:37:47.024Z,34.78
2019-05-02T12:40:14.668Z,39.25
2019-05-02T12:42:41.860Z,34.33
2019-05-02T12:45:09.162Z,34.03
2019-05-02T12:47:35.240Z,34.92
2019-05-02T12:50:03.105Z,31.42
2019-05-02T12:52:29.406Z,30.27
2019-05-02T12:54:55.638Z,30.52
2019-05-02T12:57:22.053Z,30.85
2019-05-02T12:59:48.414Z,29.37
2019-05-02T13:02:19.370Z,30.40
2019-05-02T13:04:45.598Z,19.73
2019-05-02T13:07:12.788Z,25.57
2019-05-02T13:09:39.309Z,22.27
2019-05-02T13:12:08.103Z,23.83
2019-05-02T13:14:34.345Z,22.10
2019-05-02T13:17:05.463Z,17.17
2019-05-02T13:19:38.148Z,19.02
2019-05-02T13:22:02.243Z,16.82
2019-05-02T13:24:32.434Z,19.82
2019-05-02T13:26:59.280Z,20.37
2019-05-02T13:29:26.519Z,19.05
2019-05-02T13:32:14.343Z,16.10
2019-05-02T13:34:43.279Z,21.02
2019-05-02T13:37:12.092Z,20.10
2019-05-02T13:39:39.804Z,24.92
2019-05-02T13:42:07.030Z,37.78
2019-05-02T13:44:52.565Z,49.05
2019-05-02T13:47:21.843Z,40.35
2019-05-02T13:49:54.081Z,45.40
2019-05-02T13:52:16.292Z,37.05
2019-05-02T13:54:42.696Z,42.35
2019-05-02T13:57:09.373Z,37.78
2019-05-02T13:59:35.528Z,35.40
2019-05-02T14:02:04.729Z,38.75
2019-05-02T14:04:32.651Z,44.38
2019-05-02T14:06:58.933Z,37.05
2019-05-02T14:09:32.199Z,38.20
2019-05-02T14:12:05.814Z,33.60
2019-05-02T14:14:32.621Z,36.38
2019-05-02T14:16:59.180Z,29.45
2019-05-02T14:19:25.398Z,38.70
2019-05-02T14:21:51.924Z,28.98
2019-05-02T14:24:20.320Z,28.20
2019-05-02T14:26:46.468Z,24.18
2019-05-02T14:29:16.118Z,23.30
2019-05-02T14:31:42.219Z,22.15
2019-05-02T14:34:25.626Z,24.25
2019-05-02T14:36:56.332Z,28.23
2019-05-02T14:39:20.217Z,25.27
2019-05-02T14:41:46.280Z,24.75
2019-05-02T14:44:12.395Z,30.40
2019-05-02T14:46:39.641Z,23.90
2019-05-02T14:49:05.974Z,26.90
2019-05-02T14:51:32.754Z,33.40
2019-05-02T14:54:03.747Z,28.38
2019-05-02T14:56:32.682Z,28.62
2019-05-02T14:58:58.157Z,32.98
2019-05-02T15:01:26.081Z,31.30
2019-05-02T15:03:58.109Z,26.45
2019-05-02T15:06:23.668Z,31.00
2019-05-02T15:08:49.369Z,35.13
2019-05-02T15:11:15.574Z,35.17
2019-05-02T15:13:43.598Z,31.60
2019-05-02T15:16:10.530Z,26.73
2019-05-02T15:18:37.761Z,26.87
2019-05-02T15:21:11.396Z,20.25
2019-05-02T15:23:32.482Z,20.48
2019-05-02T15:25:59.178Z,15.90
2019-05-02T15:28:25.280Z,15.30
2019-05-02T15:31:11.704Z,10.88
2019-05-02T15:33:51.840Z,12.45
2019-05-02T15:36:18.077Z,12.00
2019-05-02T15:38:47.299Z,16.97
2019-05-02T15:41:13.586Z,14.65
2019-05-02T15:43:44.472Z,16.15
2019-05-02T15:46:14.849Z,10.60
2019-05-02T15:48:38.547Z,10.68
2019-05-02T15:51:06.142Z,11.00
2019-05-02T15:53:48.463Z,10.18
2019-05-02T15:56:19.850Z,8.15
2019-05-02T15:58:39.922Z,9.75
2019-05-02T16:01:24.390Z,7.62
2019-05-02T16:04:01.710Z,8.63
2019-05-02T16:06:31.635Z,10.08
2019-05-02T16:08:56.024Z,10.70
2019-05-02T16:11:23.034Z,7.95
2019-05-02T16:13:52.416Z,12.45
2019-05-02T16:16:21.765Z,8.00
2019-05-02T16:18:47.849Z,7.55
2019-05-02T16:21:28.541Z,14.05
2019-05-02T16:24:14.776Z,6.55
2019-05-02T16:26:42.677Z,7.55
2019-05-02T16:29:07.851Z,9.95
2019-05-02T16:31:35.864Z,7.62
2019-05-02T16:34:05.165Z,5.78
2019-05-02T16:36:37.285Z,7.10
2019-05-02T16:38:59.307Z,10.05
2019-05-02T16:41:25.518Z,10.35
2019-05-02T16:43:52.405Z,7.58
2019-05-02T16:46:18.597Z,7.17
2019-05-02T16:48:44.782Z,9.58
2019-05-02T16:51:27.597Z,4.33
2019-05-02T16:53:38.908Z,7.95
2019-05-02T16:56:06.995Z,8.43
2019-05-02T16:58:33.720Z,4.90
2019-05-02T17:01:00.154Z,5.70
2019-05-02T17:03:26.598Z,6.85
2019-05-02T17:05:54.415Z,6.70
2019-05-02T17:08:22.737Z,8.10
2019-05-02T17:10:53.798Z,4.70
2019-05-02T17:13:18.745Z,10.30
2019-05-02T17:15:44.977Z,5.17
2019-05-02T17:18:13.324Z,4.87
2019-05-02T17:20:39.170Z,5.10
2019-05-02T17:23:07.502Z,10.88
2019-05-02T17:25:33.363Z,5.87
2019-05-02T17:28:02.412Z,5.00
2019-05-02T17:30:33.654Z,6.60
2019-05-02T17:32:55.637Z,4.80
2019-05-02T17:35:24.346Z,9.03
2019-05-02T17:37:52.341Z,4.85
2019-05-02T17:40:22.493Z,5.12
2019-05-02T17:42:47.183Z,2.77
2019-05-02T17:45:14.306Z,5.42
2019-05-02T17:47:40.457Z,6.08
2019-05-02T17:50:26.214Z,6.53
2019-05-02T17:52:56.113Z,5.40
2019-05-02T17:55:22.192Z,8.05
2019-05-02T17:57:48.325Z,6.37
2019-05-02T18:00:17.129Z,7.97
2019-05-02T18:02:46.871Z,7.72
2019-05-02T18:05:12.160Z,7.15
2019-05-02T18:07:38.554Z,5.70
2019-05-02T18:10:13.630Z,5.40
2019-05-02T18:12:33.802Z,6.37
2019-05-02T18:15:01.404Z,7.58
2019-05-02T18:17:29.152Z,5.62
2019-05-02T18:20:01.468Z,4.10
2019-05-02T18:22:26.399Z,5.15
2019-05-02T18:24:52.814Z,6.65
2019-05-02T18:27:18.965Z,4.70
2019-05-02T18:29:45.704Z,4.85
2019-05-02T18:32:12.840Z,7.60
2019-05-02T18:34:39.242Z,4.72
2019-05-02T18:37:06.383Z,6.37
2019-05-02T18:39:34.788Z,6.10
2019-05-02T18:42:03.917Z,8.85
2019-05-02T18:44:30.232Z,3.87
2019-05-02T18:46:57.798Z,5.67
2019-05-02T18:49:24.209Z,4.62
2019-05-02T18:51:55.608Z,7.05
2019-05-02T18:54:18.410Z,8.08
2019-05-02T18:56:50.123Z,9.68
2019-05-02T18:59:14.354Z,4.65
2019-05-02T19:01:42.624Z,4.37
2019-05-02T19:04:08.771Z,4.97
2019-05-02T19:06:36.190Z,6.08
2019-05-02T19:09:06.927Z,6.25
2019-05-02T19:11:35.315Z,4.65
2019-05-02T19:14:02.659Z,8.73
2019-05-02T19:16:29.120Z,6.58
2019-05-02T19:18:57.368Z,3.92
2019-05-02T19:21:26.533Z,10.55
2019-05-02T19:23:51.800Z,3.98
2019-05-02T19:26:18.312Z,6.75
2019-05-02T19:29:08.330Z,3.83
2019-05-02T19:31:36.607Z,4.70
2019-05-02T19:34:04.501Z,4.45
2019-05-02T19:36:32.738Z,3.75
2019-05-02T19:39:06.282Z,4.60
2019-05-02T19:41:26.736Z,6.08
2019-05-02T19:43:53.366Z,6.00
2019-05-02T19:46:26.407Z,9.35
2019-05-02T19:48:47.842Z,10.05
2019-05-02T19:51:18.768Z,5.03
2019-05-02T19:53:42.606Z,5.10
2019-05-02T19:56:09.051Z,5.37
2019-05-02T19:58:36.821Z,6.20
2019-05-02T20:01:04.207Z,4.47
2019-05-02T20:03:32.235Z,5.22
2019-05-02T20:06:02.435Z,8.50
2019-05-02T20:08:26.565Z,5.28
2019-05-02T20:10:56.641Z,6.05
2019-05-02T20:13:28.310Z,4.80
2019-05-02T20:15:52.264Z,4.90
2019-05-02T20:18:18.502Z,3.77
2019-05-02T20:21:03.291Z,5.92
2019-05-02T20:23:34.878Z,9.15
2019-05-02T20:25:57.439Z,8.10
2019-05-02T20:28:23.734Z,9.00
2019-05-02T20:30:49.860Z,7.80
2019-05-02T20:33:15.990Z,8.15
2019-05-02T20:35:42.236Z,7.65
2019-05-02T20:38:11.139Z,8.38
2019-05-02T20:40:37.046Z,7.12
2019-05-02T20:43:04.589Z,8.03
2019-05-02T20:45:32.256Z,5.17
2019-05-02T20:47:58.781Z,5.83
2019-05-02T20:50:25.108Z,8.65
2019-05-02T20:52:52.422Z,8.63
2019-05-02T20:55:18.866Z,13.22
2019-05-02T20:57:52.636Z,9.10
2019-05-02T21:00:23.537Z,6.83
2019-05-02T21:02:51.880Z,9.05
2019-05-02T21:05:21.977Z,9.78
2019-05-02T21:08:06.960Z,9.55
2019-05-02T21:10:52.200Z,8.55
2019-05-02T21:13:18.239Z,7.80
2019-05-02T21:15:44.369Z,7.45
2019-05-02T21:18:11.674Z,8.30
2019-05-02T21:20:38.154Z,7.17
2019-05-02T21:23:04.475Z,9.35
2019-05-02T21:25:32.585Z,11.28
2019-05-02T21:27:59.167Z,8.48
2019-05-02T21:30:26.478Z,11.18
2019-05-02T21:32:52.883Z,6.40
2019-05-02T21:35:19.118Z,11.95
2019-05-02T21:37:45.540Z,10.95
2019-05-02T21:40:12.471Z,11.80
2019-05-02T21:42:38.712Z,10.78
2019-05-02T21:45:07.076Z,8.05
2019-05-02T21:47:33.271Z,6.70
2019-05-02T21:50:07.139Z,10.45
2019-05-02T21:52:44.015Z,10.70
2019-05-02T21:55:12.416Z,9.80
2019-05-02T21:57:38.920Z,9.33
2019-05-02T22:00:16.711Z,11.15
2019-05-02T22:02:43.078Z,5.62
2019-05-02T22:05:09.871Z,9.78
2019-05-02T22:07:36.109Z,10.00
2019-05-02T22:10:05.812Z,10.45
2019-05-02T22:12:32.449Z,8.63
2019-05-02T22:14:58.765Z,6.50
2019-05-02T22:17:24.912Z,4.55
2019-05-02T22:19:52.499Z,6.55
2019-05-02T22:22:18.792Z,4.33
2019-05-02T22:24:45.055Z,8.30
2019-05-02T22:27:12.361Z,6.70
2019-05-02T22:29:38.861Z,9.73
2019-05-02T22:32:05.075Z,9.48
2019-05-02T22:34:32.669Z,12.45
2019-05-02T22:36:59.490Z,8.63
2019-05-02T22:39:36.672Z,8.28
2019-05-02T22:42:04.674Z,8.20
2019-05-02T22:44:32.516Z,5.80
2019-05-02T22:46:58.844Z,7.00
2019-05-02T22:49:25.064Z,6.00
2019-05-02T22:51:51.391Z,5.35
2019-05-02T22:54:26.951Z,9.98
2019-05-02T22:56:45.571Z,7.42
2019-05-02T22:59:11.824Z,5.33
2019-05-02T23:01:38.074Z,5.92
2019-05-02T23:04:04.585Z,8.23
2019-05-02T23:06:31.025Z,5.83
2019-05-02T23:08:57.377Z,7.17
2019-05-02T23:11:24.479Z,6.25
2019-05-02T23:13:51.769Z,7.70
2019-05-02T23:16:18.020Z,6.53
2019-05-02T23:18:44.245Z,7.65
2019-05-02T23:21:12.562Z,8.03
2019-05-02T23:23:38.520Z,7.53
2019-05-02T23:26:12.841Z,9.43
2019-05-02T23:28:42.221Z,6.50
2019-05-02T23:31:08.594Z,6.58
2019-05-02T23:33:53.361Z,7.28
2019-05-02T23:36:19.702Z,7.28
2019-05-02T23:38:45.924Z,9.98
2019-05-02T23:41:12.584Z,6.28
2019-05-02T23:43:38.876Z,5.22
2019-05-02T23:46:05.385Z,7.87
2019-05-02T23:48:32.595Z,6.05
2019-05-02T23:50:58.831Z,9.53
2019-05-02T23:53:25.050Z,9.53
2019-05-02T23:55:51.294Z,7.53
2019-05-02T23:58:17.524Z,8.45
